Time;durP1;ratioP1;P1;durP2;ratioP2;P2;SDS_P1;SDS_P2;PMS_P1;PMS_P2;Temp;Humidity;BMP_temperature;BMP_pressure;BME280_temperature;BME280_humidity;BME280_pressure;Samples;Min_cycle;Max_cycle;Signal;HPM_P1;HPM_P2
2024/02/28 00:01:30;;;;;;;;;;;;;;;;;;5062857;28;19928;-66
2024/02/28 00:03:56;;;;;;;;;;;;;;;;;;5068929;28;19929;-66
2024/02/28 00:06:22;;;;;;;;;;;;;;;;;;5072184;28;19982;-66
2024/02/28 00:08:49;;;;;;;;;;;;;;;;;;5071310;28;19920;-66
2024/02/28 00:11:15;;;;;;;;;;;;;;;;;;5071576;28;19924;-66
2024/02/28 00:13:41;;;;;;;;;;;;;;;;;;5053631;28;20335;-66
2024/02/28 00:16:06;;;;;;;;;;;;;;;;;;5068319;28;20011;-66
2024/02/28 00:18:32;;;;;;;;;;;;;;;;;;5069642;28;20007;-66
2024/02/28 00:20:58;;;;;;;;;;;;;;;;;;5058011;28;20023;-66
2024/02/28 00:23:24;;;;;;;;;;;;;;;;;;5054141;28;20038;-66
2024/02/28 00:25:50;;;;;;;;;;;;;;;;;;5070503;28;20438;-66
2024/02/28 00:28:16;;;;;;;;;;;;;;;;;;5054771;28;19925;-66
2024/02/28 00:30:42;;;;;;;;;;;;;;;;;;5056140;28;19999;-66
2024/02/28 00:33:08;;;;;;;;;;;;;;;;;;5065797;28;19956;-65
2024/02/28 00:35:34;;;;;;;;;;;;;;;;;;5061834;28;19924;-66
2024/02/28 00:38:00;;;;;;;;;;;;;;;;;;5060230;28;19932;-66
2024/02/28 00:40:26;;;;;;;;;;;;;;;;;;5067815;22;19928;-65
2024/02/28 00:42:53;;;;;;;;;;;;;;;;;;5035949;28;20293;-66
2024/02/28 00:45:18;;;;;;;;;;;;;;;;;;5031816;28;20532;-66
2024/02/28 00:47:44;;;;;;;;;;;;;;;;;;5036477;28;20027;-66
2024/02/28 00:50:11;;;;;;;;;;;;;;;;;;5031793;28;19933;-66
2024/02/28 00:52:37;;;;;;;;;;;;;;;;;;5034563;28;20281;-66
2024/02/28 00:55:04;;;;;;;;;;;;;;;;;;5035024;28;19983;-66
2024/02/28 00:57:30;;;;;;;;;;;;;;;;;;5036388;28;20047;-66
2024/02/28 00:59:56;;;;;;;;;;;;;;;;;;5048220;28;20396;-65
2024/02/28 01:02:22;;;;;;;;;;;;;;;;;;5055112;28;19968;-66
2024/02/28 01:04:48;;;;;;;;;;;;;;;;;;5054627;28;20362;-66
2024/02/28 01:07:14;;;;;;;;;;;;;;;;;;5055021;28;19925;-66
2024/02/28 01:09:40;;;;;;;;;;;;;;;;;;5049635;28;19928;-66
2024/02/28 01:12:06;;;;;;;;;;;;;;;;;;5050762;28;19921;-66
2024/02/28 01:14:32;;;;;;;;;;;;;;;;;;5036876;28;19929;-66
2024/02/28 01:16:58;;;;;;;;;;;;;;;;;;5047873;28;19925;-66
2024/02/28 01:19:24;;;;;;;;;;;;;;;;;;5054812;28;19921;-66
2024/02/28 01:21:50;;;;;;;;;;;;;;;;;;5054489;28;19921;-66
2024/02/28 01:24:16;;;;;;;;;;;;;;;;;;5054683;28;20011;-67
2024/02/28 01:26:41;;;;;;;;;;;;;;;;;;5053243;28;19929;-66
2024/02/28 01:29:07;;;;;;;;;;;;;;;;;;5052642;28;19925;-66
2024/02/28 01:31:33;;;;;;;;;;;;;;;;;;5039633;28;20313;-66
2024/02/28 01:33:59;;;;;;;;;;;;;;;;;;5053994;28;20032;-67
2024/02/28 01:36:26;;;;;;;;;;;;;;;;;;5036528;28;19925;-66
2024/02/28 01:38:52;;;;;;;;;;;;;;;;;;5053428;28;20007;-66
2024/02/28 01:41:18;;;;;;;;;;;;;;;;;;5052378;28;19975;-66
2024/02/28 01:43:44;;;;;;;;;;;;;;;;;;5053180;28;20365;-65
2024/02/28 01:46:09;;;;;;;;;;;;;;;;;;5043539;28;20385;-65
2024/02/28 01:48:35;;;;;;;;;;;;;;;;;;5034196;28;20546;-65
2024/02/28 01:51:01;;;;;;;;;;;;;;;;;;5042231;28;19925;-65
2024/02/28 01:53:27;;;;;;;;;;;;;;;;;;5054692;28;19932;-65
2024/02/28 01:55:53;;;;;;;;;;;;;;;;;;5040996;28;20282;-65
2024/02/28 01:58:19;;;;;;;;;;;;;;;;;;5052728;28;19960;-66
2024/02/28 02:00:45;;;;;;;;;;;;;;;;;;5051967;28;19928;-66
2024/02/28 02:03:11;;;;;;;;;;;;;;;;;;5035825;28;20274;-65
2024/02/28 02:05:37;;;;;;;;;;;;;;;;;;5033412;28;20016;-66
2024/02/28 02:08:03;;;;;;;;;;;;;;;;;;5030284;28;20007;-66
2024/02/28 02:10:29;;;;;;;;;;;;;;;;;;5033344;28;20032;-66
2024/02/28 02:12:55;;;;;;;;;;;;;;;;;;5040718;28;20342;-66
2024/02/28 02:15:21;;;;;;;;;;;;;;;;;;5036965;28;20004;-66
2024/02/28 02:17:47;;;;;;;;;;;;;;;;;;5033406;28;19964;-66
2024/02/28 02:20:13;;;;;;;;;;;;;;;;;;5037117;28;20015;-66
2024/02/28 02:22:38;;;;;;;;;;;;;;;;;;5042791;28;19932;-66
2024/02/28 02:25:05;;;;;;;;;;;;;;;;;;5017827;28;19928;-67
2024/02/28 02:27:30;;;;;;;;;;;;;;;;;;5033785;28;19921;-67
2024/02/28 02:29:56;;;;;;;;;;;;;;;;;;5022318;28;20413;-66
2024/02/28 02:32:22;;;;;;;;;;;;;;;;;;5053615;28;19928;-66
2024/02/28 02:34:49;;;;;;;;;;;;;;;;;;5051346;28;19925;-66
2024/02/28 02:37:15;;;;;;;;;;;;;;;;;;5048270;28;19925;-66
2024/02/28 02:39:41;;;;;;;;;;;;;;;;;;5052507;28;19924;-66
2024/02/28 02:42:07;;;;;;;;;;;;;;;;;;5048487;28;20039;-66
2024/02/28 02:44:33;;;;;;;;;;;;;;;;;;5053248;28;19925;-66
2024/02/28 02:46:59;;;;;;;;;;;;;;;;;;5053195;28;19943;-66
2024/02/28 02:49:25;;;;;;;;;;;;;;;;;;5053125;28;19921;-66
2024/02/28 02:51:51;;;;;;;;;;;;;;;;;;5051790;28;19921;-66
2024/02/28 02:54:17;;;;;;;;;;;;;;;;;;5036791;28;19932;-66
2024/02/28 02:56:43;;;;;;;;;;;;;;;;;;5042874;28;19943;-67
2024/02/28 02:59:09;;;;;;;;;;;;;;;;;;5049156;28;19971;-67
2024/02/28 03:01:35;;;;;;;;;;;;;;;;;;5036924;28;19961;-67
2024/02/28 03:04:01;;;;;;;;;;;;;;;;;;5040834;28;19960;-66
2024/02/28 03:06:27;;;;;;;;;;;;;;;;;;5051295;28;19960;-65
2024/02/28 03:08:53;;;;;;;;;;;;;;;;;;5052607;28;20015;-66
2024/02/28 03:11:19;;;;;;;;;;;;;;;;;;5030622;28;20016;-66
2024/02/28 03:13:45;;;;;;;;;;;;;;;;;;5031298;28;20579;-66
2024/02/28 03:16:11;;;;;;;;;;;;;;;;;;5048386;28;19932;-66
2024/02/28 03:18:37;;;;;;;;;;;;;;;;;;5044143;28;20294;-66
2024/02/28 03:21:03;;;;;;;;;;;;;;;;;;5039301;28;20012;-66
2024/02/28 03:23:29;;;;;;;;;;;;;;;;;;5040565;28;19921;-66
2024/02/28 03:25:55;;;;;;;;;;;;;;;;;;5039328;28;20356;-66
2024/02/28 03:28:21;;;;;;;;;;;;;;;;;;5052063;28;20367;-66
2024/02/28 03:30:47;;;;;;;;;;;;;;;;;;5034294;28;20011;-67
2024/02/28 03:33:13;;;;;;;;;;;;;;;;;;5048922;28;19952;-67
2024/02/28 03:35:39;;;;;;;;;;;;;;;;;;5052203;28;19970;-67
2024/02/28 03:38:05;;;;;;;;;;;;;;;;;;5050650;28;20353;-67
2024/02/28 03:40:31;;;;;;;;;;;;;;;;;;5051319;28;20279;-66
2024/02/28 03:42:59;;;;;;;;;;;;;;;;;;5047741;28;19921;-66
2024/02/28 03:45:24;;;;;;;;;;;;;;;;;;5040780;28;19921;-66
2024/02/28 03:47:50;;;;;;;;;;;;;;;;;;5036931;28;19927;-66
2024/02/28 03:50:16;;;;;;;;;;;;;;;;;;5048957;28;20572;-66
2024/02/28 03:52:42;;;;;;;;;;;;;;;;;;5051924;28;19928;-66
2024/02/28 03:55:08;;;;;;;;;;;;;;;;;;5051744;28;19931;-65
2024/02/28 03:57:34;;;;;;;;;;;;;;;;;;5052043;28;19967;-66
2024/02/28 04:00:00;;;;;;;;;;;;;;;;;;5067268;28;19924;-66
2024/02/28 04:02:26;;;;;;;;;;;;;;;;;;5043834;28;19925;-66
2024/02/28 04:04:52;;;;;;;;;;;;;;;;;;5033051;28;19925;-66
2024/02/28 04:07:18;;;;;;;;;;;;;;;;;;5047415;28;20015;-66
2024/02/28 04:09:44;;;;;;;;;;;;;;;;;;5051884;28;20540;-66
2024/02/28 04:12:10;;;;;;;;;;;;;;;;;;5038671;28;19928;-66
2024/02/28 04:14:35;;;;;;;;;;;;;;;;;;5033863;28;20379;-66
2024/02/28 04:17:01;;;;;;;;;;;;;;;;;;5039418;28;19979;-66
2024/02/28 04:19:27;;;;;;;;;;;;;;;;;;5031834;28;19979;-66
2024/02/28 04:21:53;;;;;;;;;;;;;;;;;;5043381;28;19986;-66
2024/02/28 04:24:19;;;;;;;;;;;;;;;;;;5051877;28;20396;-67
2024/02/28 04:26:45;;;;;;;;;;;;;;;;;;5051430;28;19921;-67
2024/02/28 04:29:13;;;;;;;;;;;;;;;;;;5044295;28;19990;-65
2024/02/28 04:31:40;;;;;;;;;;;;;;;;;;5042119;28;19925;-66
2024/02/28 04:34:06;;;;;;;;;;;;;;;;;;5055782;28;19921;-66
2024/02/28 04:36:32;;;;;;;;;;;;;;;;;;5055536;28;19937;-66
2024/02/28 04:38:58;;;;;;;;;;;;;;;;;;5054144;28;19956;-66
2024/02/28 04:41:24;;;;;;;;;;;;;;;;;;5054706;28;19968;-66
2024/02/28 04:43:49;;;;;;;;;;;;;;;;;;5053460;28;19927;-66
2024/02/28 04:46:15;;;;;;;;;;;;;;;;;;5055373;28;19921;-67
2024/02/28 04:48:41;;;;;;;;;;;;;;;;;;5052387;28;19929;-67
2024/02/28 04:51:07;;;;;;;;;;;;;;;;;;5055532;28;19931;-67
2024/02/28 04:53:33;;;;;;;;;;;;;;;;;;5055012;28;20362;-67
2024/02/28 04:55:59;;;;;;;;;;;;;;;;;;5055353;28;19925;-67
2024/02/28 04:58:25;;;;;;;;;;;;;;;;;;5070116;28;20396;-67
2024/02/28 05:00:54;;;;;;;;;;;;;;;;;;5053768;28;19931;-67
2024/02/28 05:03:22;;;;;;;;;;;;;;;;;;5053285;28;19921;-67
2024/02/28 05:05:48;;;;;;;;;;;;;;;;;;5053069;28;19944;-67
2024/02/28 05:08:14;;;;;;;;;;;;;;;;;;5052806;28;20278;-67
2024/02/28 05:10:40;;;;;;;;;;;;;;;;;;5055034;28;19920;-67
2024/02/28 05:13:06;;;;;;;;;;;;;;;;;;5051640;28;20382;-67
2024/02/28 05:15:32;;;;;;;;;;;;;;;;;;5054195;28;19929;-67
2024/02/28 05:17:57;;;;;;;;;;;;;;;;;;5054610;28;19921;-67
2024/02/28 05:20:24;;;;;;;;;;;;;;;;;;5054669;28;19921;-67
2024/02/28 05:22:50;;;;;;;;;;;;;;;;;;5054839;28;20270;-67
2024/02/28 05:25:16;;;;;;;;;;;;;;;;;;5052456;28;19924;-66
2024/02/28 05:27:42;;;;;;;;;;;;;;;;;;5054433;28;19978;-66
2024/02/28 05:30:08;;;;;;;;;;;;;;;;;;5054781;28;20360;-66
2024/02/28 05:32:33;;;;;;;;;;;;;;;;;;5054364;28;19925;-66
2024/02/28 05:34:59;;;;;;;;;;;;;;;;;;5053061;28;19925;-67
2024/02/28 05:37:25;;;;;;;;;;;;;;;;;;5053998;28;19966;-67
2024/02/28 05:39:51;;;;;;;;;;;;;;;;;;5052732;28;20000;-66
2024/02/28 05:42:21;;;;;;;;;;;;;;;;;;5051558;28;19927;-67
2024/02/28 05:44:47;;;;;;;;;;;;;;;;;;5050135;28;19925;-66
2024/02/28 05:47:13;;;;;;;;;;;;;;;;;;5054423;28;20315;-67
2024/02/28 05:49:39;;;;;;;;;;;;;;;;;;5040356;28;19968;-67
2024/02/28 05:52:05;;;;;;;;;;;;;;;;;;5054174;28;20296;-66
2024/02/28 05:54:31;;;;;;;;;;;;;;;;;;5052225;28;19930;-66
2024/02/28 05:56:57;;;;;;;;;;;;;;;;;;5054050;28;19921;-66
2024/02/28 05:59:23;;;;;;;;;;;;;;;;;;5051909;28;19928;-65
2024/02/28 06:01:49;;;;;;;;;;;;;;;;;;5050542;28;19921;-65
2024/02/28 06:04:15;;;;;;;;;;;;;;;;;;5053205;28;20422;-66
2024/02/28 06:06:41;;;;;;;;;;;;;;;;;;5050215;28;19920;-66
2024/02/28 06:09:07;;;;;;;;;;;;;;;;;;5053564;28;19921;-65
2024/02/28 06:11:33;;;;;;;;;;;;;;;;;;5052108;28;19950;-66
2024/02/28 06:13:59;;;;;;;;;;;;;;;;;;5052196;28;19925;-66
2024/02/28 06:16:25;;;;;;;;;;;;;;;;;;5050375;28;19924;-66
2024/02/28 06:18:51;;;;;;;;;;;;;;;;;;5051656;28;19943;-66
2024/02/28 06:21:17;;;;;;;;;;;;;;;;;;5052641;28;19932;-66
2024/02/28 06:23:43;;;;;;;;;;;;;;;;;;5045426;28;19920;-66
2024/02/28 06:26:15;;;;;;;;;;;;;;;;;;5048002;28;19921;-66
2024/02/28 06:28:42;;;;;;;;;;;;;;;;;;5050675;28;20397;-66
2024/02/28 06:31:08;;;;;;;;;;;;;;;;;;5050601;28;19927;-66
2024/02/28 06:33:34;;;;;;;;;;;;;;;;;;5050494;28;20043;-66
2024/02/28 06:36:00;;;;;;;;;;;;;;;;;;5048693;28;20534;-66
2024/02/28 06:38:26;;;;;;;;;;;;;;;;;;5050212;28;20449;-66
2024/02/28 06:40:52;;;;;;;;;;;;;;;;;;5047802;28;19929;-66
2024/02/28 06:43:19;;;;;;;;;;;;;;;;;;5053403;28;20027;-66
2024/02/28 06:45:45;;;;;;;;;;;;;;;;;;5051607;28;19921;-65
2024/02/28 06:48:10;;;;;;;;;;;;;;;;;;5050998;28;19936;-67
2024/02/28 06:50:36;;;;;;;;;;;;;;;;;;5052428;28;19924;-67
2024/02/28 06:53:03;;;;;;;;;;;;;;;;;;5032318;28;20297;-67
2024/02/28 06:55:29;;;;;;;;;;;;;;;;;;5051543;28;19925;-67
2024/02/28 06:57:57;;;;;;;;;;;;;;;;;;5051388;28;20218;-67
2024/02/28 07:00:23;;;;;;;;;;;;;;;;;;5049525;28;21916;-67
2024/02/28 07:02:49;;;;;;;;;;;;;;;;;;5049929;28;19951;-67
2024/02/28 07:05:15;;;;;;;;;;;;;;;;;;5050167;28;20090;-67
2024/02/28 07:07:41;;;;;;;;;;;;;;;;;;5051807;28;19924;-66
2024/02/28 07:10:07;;;;;;;;;;;;;;;;;;5051860;28;20501;-67
2024/02/28 07:12:33;;;;;;;;;;;;;;;;;;5050505;28;19925;-67
2024/02/28 07:14:58;;;;;;;;;;;;;;;;;;5051622;28;19929;-66
2024/02/28 07:17:24;;;;;;;;;;;;;;;;;;5049013;28;20386;-66
2024/02/28 07:19:50;;;;;;;;;;;;;;;;;;5049615;28;20027;-66
2024/02/28 07:22:16;;;;;;;;;;;;;;;;;;5051208;28;19925;-66
2024/02/28 07:24:42;;;;;;;;;;;;;;;;;;5051201;28;20677;-66
2024/02/28 07:27:08;;;;;;;;;;;;;;;;;;5047905;28;19927;-67
2024/02/28 07:29:34;;;;;;;;;;;;;;;;;;5050846;28;20007;-68
2024/02/28 07:32:02;;;;;;;;;;;;;;;;;;5050705;28;20298;-70
2024/02/28 07:34:28;;;;;;;;;;;;;;;;;;5048083;28;20000;-67
2024/02/28 07:36:54;;;;;;;;;;;;;;;;;;5049090;28;20069;-67
2024/02/28 07:39:20;;;;;;;;;;;;;;;;;;5033115;28;20007;-66
2024/02/28 07:41:46;;;;;;;;;;;;;;;;;;5061794;28;20408;-67
2024/02/28 07:44:13;;;;;;;;;;;;;;;;;;5070979;28;19928;-66
2024/02/28 07:46:38;;;;;;;;;;;;;;;;;;5032154;28;19920;-67
2024/02/28 07:49:04;;;;;;;;;;;;;;;;;;5049073;28;20294;-66
2024/02/28 07:51:30;;;;;;;;;;;;;;;;;;5048537;28;19920;-66
2024/02/28 07:53:56;;;;;;;;;;;;;;;;;;5049330;28;20413;-65
2024/02/28 07:56:22;;;;;;;;;;;;;;;;;;5049328;28;19929;-66
2024/02/28 07:58:48;;;;;;;;;;;;;;;;;;5051518;28;19925;-66
2024/02/28 08:01:16;;;;;;;;;;;;;;;;;;5035502;28;19921;-66
2024/02/28 08:03:42;;;;;;;;;;;;;;;;;;5043464;28;19928;-66
2024/02/28 08:06:10;;;;;;;;;;;;;;;;;;5048275;28;19920;-65
2024/02/28 08:08:36;;;;;;;;;;;;;;;;;;5031407;28;20008;-65
2024/02/28 08:11:03;;;;;;;;;;;;;;;;;;5062577;22;20027;-65
2024/02/28 08:13:29;;;;;;;;;;;;;;;;;;5056365;28;20340;-65
2024/02/28 08:15:55;;;;;;;;;;;;;;;;;;5060224;28;20011;-65
2024/02/28 08:18:21;;;;;;;;;;;;;;;;;;5064998;28;19927;-65
2024/02/28 08:20:46;;;;;;;;;;;;;;;;;;5065836;28;20032;-65
2024/02/28 08:23:12;;;;;;;;;;;;;;;;;;5051494;28;20277;-62
2024/02/28 08:25:38;;;;;;;;;;;;;;;;;;5068912;28;20016;-64
2024/02/28 08:28:04;;;;;;;;;;;;;;;;;;5062168;28;19927;-64
2024/02/28 08:30:30;;;;;;;;;;;;;;;;;;5058623;28;19925;-64
2024/02/28 08:32:57;;;;;;;;;;;;;;;;;;5057010;28;19924;-64
2024/02/28 08:35:23;;;;;;;;;;;;;;;;;;5069578;28;20426;-64
2024/02/28 08:37:49;;;;;;;;;;;;;;;;;;5065043;28;19971;-64
2024/02/28 08:40:15;;;;;;;;;;;;;;;;;;5056451;28;20271;-64
2024/02/28 08:42:41;;;;;;;;;;;;;;;;;;5069115;28;19929;-64
2024/02/28 08:45:07;;;;;;;;;;;;;;;;;;5043714;28;20420;-64
2024/02/28 08:47:33;;;;;;;;;;;;;;;;;;5064098;28;19920;-64
2024/02/28 08:49:59;;;;;;;;;;;;;;;;;;5034183;28;19921;-64
2024/02/28 08:52:25;;;;;;;;;;;;;;;;;;5062939;28;19921;-64
2024/02/28 08:54:53;;;;;;;;;;;;;;;;;;5059507;28;19929;-64
2024/02/28 08:57:22;;;;;;;;;;;;;;;;;;5074987;28;19935;-64
2024/02/28 08:59:48;;;;;;;;;;;;;;;;;;5071389;28;19939;-64
2024/02/28 09:02:14;;;;;;;;;;;;;;;;;;5069221;28;19921;-64
2024/02/28 09:04:40;;;;;;;;;;;;;;;;;;5059652;28;19933;-64
2024/02/28 09:07:06;;;;;;;;;;;;;;;;;;5059439;28;19990;-64
2024/02/28 09:09:36;;;;;;;;;;;;;;;;;;5051313;28;19960;-64
2024/02/28 09:12:03;;;;;;;;;;;;;;;;;;5055278;28;19932;-63
2024/02/28 09:14:29;;;;;;;;;;;;;;;;;;5069539;28;19928;-63
2024/02/28 09:17:01;;;;;;;;;;;;;;;;;;5074596;28;19924;-63
2024/02/28 09:19:27;;;;;;;;;;;;;;;;;;5073817;28;19931;-63
2024/02/28 09:21:53;;;;;;;;;;;;;;;;;;5073009;28;19920;-63
2024/02/28 09:24:19;;;;;;;;;;;;;;;;;;5074558;28;19920;-64
2024/02/28 09:26:45;;;;;;;;;;;;;;;;;;5062587;28;20727;-63
2024/02/28 09:29:10;;;;;;;;;;;;;;;;;;5055369;28;19968;-63
2024/02/28 09:31:36;;;;;;;;;;;;;;;;;;5074602;28;19920;-63
2024/02/28 09:34:07;;;;;;;;;;;;;;;;;;5074644;28;19932;-63
2024/02/28 09:36:33;;;;;;;;;;;;;;;;;;5073997;28;20023;-63
2024/02/28 09:38:59;;;;;;;;;;;;;;;;;;5055116;28;20007;-64
2024/02/28 09:41:26;;;;;;;;;;;;;;;;;;5057484;28;20011;-64
2024/02/28 09:43:52;;;;;;;;;;;;;;;;;;5039160;28;19924;-64
2024/02/28 09:46:18;;;;;;;;;;;;;;;;;;5061497;28;19975;-64
2024/02/28 09:48:45;;;;;;;;;;;;;;;;;;5069640;28;20550;-64
2024/02/28 09:51:12;;;;;;;;;;;;;;;;;;5072520;28;19969;-64
2024/02/28 09:53:38;;;;;;;;;;;;;;;;;;5062908;28;19929;-64
2024/02/28 09:56:04;;;;;;;;;;;;;;;;;;5054078;28;20515;-65
2024/02/28 09:58:30;;;;;;;;;;;;;;;;;;5053280;28;20101;-65
2024/02/28 10:00:56;;;;;;;;;;;;;;;;;;5057771;28;19967;-65
2024/02/28 10:03:23;;;;;;;;;;;;;;;;;;5061329;28;20017;-64
2024/02/28 10:05:49;;;;;;;;;;;;;;;;;;5051227;28;20055;-65
2024/02/28 10:08:15;;;;;;;;;;;;;;;;;;5065141;28;20007;-64
2024/02/28 10:10:41;;;;;;;;;;;;;;;;;;5079651;28;20288;-63
2024/02/28 10:13:07;;;;;;;;;;;;;;;;;;5072296;28;19920;-64
2024/02/28 10:15:33;;;;;;;;;;;;;;;;;;5073476;28;19932;-64
2024/02/28 10:17:58;;;;;;;;;;;;;;;;;;5068198;28;20373;-64
2024/02/28 10:20:24;;;;;;;;;;;;;;;;;;5061674;28;20273;-64
2024/02/28 10:22:50;;;;;;;;;;;;;;;;;;5072878;28;19920;-64
2024/02/28 10:25:17;;;;;;;;;;;;;;;;;;5058206;28;20011;-64
2024/02/28 10:27:43;;;;;;;;;;;;;;;;;;5066134;28;19942;-64
2024/02/28 10:30:09;;;;;;;;;;;;;;;;;;5073204;28;19995;-63
2024/02/28 10:32:36;;;;;;;;;;;;;;;;;;5072592;28;19932;-63
2024/02/28 10:35:02;;;;;;;;;;;;;;;;;;5071554;28;20014;-63
2024/02/28 10:37:28;;;;;;;;;;;;;;;;;;5062926;28;20386;-63
2024/02/28 10:39:54;;;;;;;;;;;;;;;;;;5069899;28;20417;-63
2024/02/28 10:42:20;;;;;;;;;;;;;;;;;;5055294;28;19928;-63
2024/02/28 10:44:46;;;;;;;;;;;;;;;;;;5072703;28;19924;-63
2024/02/28 10:47:12;;;;;;;;;;;;;;;;;;5072894;28;19929;-63
2024/02/28 10:49:38;;;;;;;;;;;;;;;;;;5069705;28;19997;-63
2024/02/28 10:52:04;;;;;;;;;;;;;;;;;;5072497;28;20263;-63
2024/02/28 10:54:30;;;;;;;;;;;;;;;;;;5062136;28;19924;-64
2024/02/28 10:56:56;;;;;;;;;;;;;;;;;;5050396;28;19947;-65
2024/02/28 10:59:22;;;;;;;;;;;;;;;;;;5051734;28;19960;-65
2024/02/28 11:01:48;;;;;;;;;;;;;;;;;;5066600;28;19967;-65
2024/02/28 11:04:14;;;;;;;;;;;;;;;;;;5068960;28;19925;-65
2024/02/28 11:06:40;;;;;;;;;;;;;;;;;;5051146;28;19959;-65
2024/02/28 11:09:06;;;;;;;;;;;;;;;;;;5070538;28;20338;-65
2024/02/28 11:11:34;;;;;;;;;;;;;;;;;;5061701;28;19924;-65
2024/02/28 11:14:00;;;;;;;;;;;;;;;;;;5047887;28;20007;-65
2024/02/28 11:16:27;;;;;;;;;;;;;;;;;;5055481;28;20031;-65
2024/02/28 11:18:52;;;;;;;;;;;;;;;;;;5072242;28;19948;-65
2024/02/28 11:21:18;;;;;;;;;;;;;;;;;;5057019;28;20457;-65
2024/02/28 11:23:44;;;;;;;;;;;;;;;;;;5064522;28;19925;-65
2024/02/28 11:26:10;;;;;;;;;;;;;;;;;;5050490;28;20298;-65
2024/02/28 11:28:36;;;;;;;;;;;;;;;;;;5061894;28;19921;-65
2024/02/28 11:31:02;;;;;;;;;;;;;;;;;;5070468;28;20389;-65
2024/02/28 11:33:28;;;;;;;;;;;;;;;;;;5071696;28;19924;-65
2024/02/28 11:35:54;;;;;;;;;;;;;;;;;;5070553;28;19994;-65
2024/02/28 11:38:21;;;;;;;;;;;;;;;;;;5064838;28;19938;-65
2024/02/28 11:40:47;;;;;;;;;;;;;;;;;;5051274;28;19921;-65
2024/02/28 11:43:13;;;;;;;;;;;;;;;;;;5051986;28;19921;-65
2024/02/28 11:45:39;;;;;;;;;;;;;;;;;;5052502;28;19929;-65
2024/02/28 11:48:05;;;;;;;;;;;;;;;;;;5055120;28;19947;-65
2024/02/28 11:50:31;;;;;;;;;;;;;;;;;;5068794;28;19966;-64
2024/02/28 11:52:56;;;;;;;;;;;;;;;;;;5067817;28;19932;-64
2024/02/28 11:55:22;;;;;;;;;;;;;;;;;;5071695;28;19928;-64
2024/02/28 11:57:48;;;;;;;;;;;;;;;;;;5071250;28;19924;-64
2024/02/28 12:00:14;;;;;;;;;;;;;;;;;;5055863;28;19928;-64
2024/02/28 12:02:40;;;;;;;;;;;;;;;;;;5062471;28;19924;-63
2024/02/28 12:05:06;;;;;;;;;;;;;;;;;;5066688;28;19920;-63
2024/02/28 12:07:32;;;;;;;;;;;;;;;;;;5053031;28;20297;-64
2024/02/28 12:09:58;;;;;;;;;;;;;;;;;;5052041;28;20386;-64
2024/02/28 12:12:24;;;;;;;;;;;;;;;;;;5066736;28;19973;-64
2024/02/28 12:14:50;;;;;;;;;;;;;;;;;;5070111;28;19982;-64
2024/02/28 12:17:16;;;;;;;;;;;;;;;;;;5070872;28;19920;-64
2024/02/28 12:19:42;;;;;;;;;;;;;;;;;;5051889;28;19925;-64
2024/02/28 12:22:08;;;;;;;;;;;;;;;;;;5065087;28;19921;-65
2024/02/28 12:24:34;;;;;;;;;;;;;;;;;;5054673;28;19932;-65
2024/02/28 12:27:01;;;;;;;;;;;;;;;;;;5060788;28;19951;-65
2024/02/28 12:29:27;;;;;;;;;;;;;;;;;;5066521;28;19947;-65
2024/02/28 12:31:52;;;;;;;;;;;;;;;;;;5071379;28;19929;-65
2024/02/28 12:34:18;;;;;;;;;;;;;;;;;;5071648;28;19920;-65
2024/02/28 12:36:44;;;;;;;;;;;;;;;;;;5071380;28;20251;-65
2024/02/28 12:39:11;;;;;;;;;;;;;;;;;;5069859;28;19928;-65
2024/02/28 12:41:37;;;;;;;;;;;;;;;;;;5069665;28;19927;-65
2024/02/28 12:44:03;;;;;;;;;;;;;;;;;;5060700;28;19920;-65
2024/02/28 12:46:29;;;;;;;;;;;;;;;;;;5052259;28;19936;-65
2024/02/28 12:48:55;;;;;;;;;;;;;;;;;;5056652;28;19921;-65
2024/02/28 12:51:21;;;;;;;;;;;;;;;;;;5068205;28;19921;-65
2024/02/28 12:53:49;;;;;;;;;;;;;;;;;;5065058;28;19927;-65
2024/02/28 12:56:15;;;;;;;;;;;;;;;;;;5073551;28;19925;-65
2024/02/28 12:58:40;;;;;;;;;;;;;;;;;;5072666;28;19921;-65
2024/02/28 13:01:08;;;;;;;;;;;;;;;;;;5070111;28;19925;-64
2024/02/28 13:03:34;;;;;;;;;;;;;;;;;;5054413;28;20340;-64
2024/02/28 13:06:00;;;;;;;;;;;;;;;;;;5054903;28;19925;-64
2024/02/28 13:08:26;;;;;;;;;;;;;;;;;;5055112;28;20003;-64
2024/02/28 13:10:52;;;;;;;;;;;;;;;;;;5057920;28;20000;-64
2024/02/28 13:13:18;;;;;;;;;;;;;;;;;;5074866;28;19967;-64
2024/02/28 13:15:45;;;;;;;;;;;;;;;;;;5071513;28;20358;-64
2024/02/28 13:18:11;;;;;;;;;;;;;;;;;;5071506;28;20263;-64
2024/02/28 13:20:37;;;;;;;;;;;;;;;;;;5070343;28;19973;-64
2024/02/28 13:23:03;;;;;;;;;;;;;;;;;;5074747;28;20338;-64
2024/02/28 13:25:29;;;;;;;;;;;;;;;;;;5073555;28;19971;-64
2024/02/28 13:27:55;;;;;;;;;;;;;;;;;;5073960;28;19931;-64
2024/02/28 13:30:22;;;;;;;;;;;;;;;;;;5073435;28;19920;-64
2024/02/28 13:32:48;;;;;;;;;;;;;;;;;;5073561;28;19927;-64
2024/02/28 13:35:14;;;;;;;;;;;;;;;;;;5068167;28;20015;-64
2024/02/28 13:37:40;;;;;;;;;;;;;;;;;;5054463;28;19928;-64
2024/02/28 13:40:06;;;;;;;;;;;;;;;;;;5054723;28;19924;-64
2024/02/28 13:42:32;;;;;;;;;;;;;;;;;;5073982;28;19920;-63
2024/02/28 13:44:58;;;;;;;;;;;;;;;;;;5074347;28;19973;-63
2024/02/28 13:47:23;;;;;;;;;;;;;;;;;;5073690;28;19999;-63
2024/02/28 13:49:49;;;;;;;;;;;;;;;;;;5074023;28;20339;-63
2024/02/28 13:52:15;;;;;;;;;;;;;;;;;;5071863;28;19924;-63
2024/02/28 13:54:41;;;;;;;;;;;;;;;;;;5073965;28;19924;-63
2024/02/28 13:57:07;;;;;;;;;;;;;;;;;;5069356;28;19920;-63
2024/02/28 13:59:34;;;;;;;;;;;;;;;;;;5074026;28;19920;-63
2024/02/28 14:02:00;;;;;;;;;;;;;;;;;;5072940;28;19925;-63
2024/02/28 14:04:25;;;;;;;;;;;;;;;;;;5072725;28;20289;-63
2024/02/28 14:06:51;;;;;;;;;;;;;;;;;;5073507;28;19928;-63
2024/02/28 14:09:17;;;;;;;;;;;;;;;;;;5073398;28;19990;-64
2024/02/28 14:11:44;;;;;;;;;;;;;;;;;;5056579;22;19932;-64
2024/02/28 14:14:11;;;;;;;;;;;;;;;;;;5045612;28;19927;-64
2024/02/28 14:16:37;;;;;;;;;;;;;;;;;;5052077;28;19932;-64
2024/02/28 14:19:04;;;;;;;;;;;;;;;;;;5053006;28;19925;-64
2024/02/28 14:21:30;;;;;;;;;;;;;;;;;;5053065;28;20431;-64
2024/02/28 14:23:55;;;;;;;;;;;;;;;;;;5052622;28;19920;-64
2024/02/28 14:26:24;;;;;;;;;;;;;;;;;;5039406;28;19921;-64
2024/02/28 14:28:49;;;;;;;;;;;;;;;;;;5050228;28;19927;-64
2024/02/28 14:31:15;;;;;;;;;;;;;;;;;;5049209;28;20370;-63
2024/02/28 14:33:41;;;;;;;;;;;;;;;;;;5050032;28;19925;-64
2024/02/28 14:36:07;;;;;;;;;;;;;;;;;;5034212;28;19928;-64
2024/02/28 14:38:33;;;;;;;;;;;;;;;;;;5052196;28;19924;-64
2024/02/28 14:40:59;;;;;;;;;;;;;;;;;;5051557;28;20267;-64
2024/02/28 14:43:28;;;;;;;;;;;;;;;;;;5053298;28;19926;-63
2024/02/28 14:45:54;;;;;;;;;;;;;;;;;;5051857;28;19978;-63
2024/02/28 14:48:22;;;;;;;;;;;;;;;;;;5050989;28;20029;-63
2024/02/28 14:50:47;;;;;;;;;;;;;;;;;;5052786;28;19999;-63
2024/02/28 14:53:16;;;;;;;;;;;;;;;;;;5048427;28;20022;-63
2024/02/28 14:55:44;;;;;;;;;;;;;;;;;;5052420;28;19924;-63
2024/02/28 14:58:10;;;;;;;;;;;;;;;;;;5052271;28;19928;-63
2024/02/28 15:00:36;;;;;;;;;;;;;;;;;;5046693;28;20306;-63
2024/02/28 15:03:02;;;;;;;;;;;;;;;;;;5050879;28;19921;-63
2024/02/28 15:05:28;;;;;;;;;;;;;;;;;;5051221;28;19921;-64
2024/02/28 15:07:54;;;;;;;;;;;;;;;;;;5051995;28;19930;-63
2024/02/28 15:10:20;;;;;;;;;;;;;;;;;;5051981;28;19928;-64
2024/02/28 15:12:46;;;;;;;;;;;;;;;;;;5051522;28;19967;-63
2024/02/28 15:15:12;;;;;;;;;;;;;;;;;;5049468;28;20328;-62
2024/02/28 15:17:38;;;;;;;;;;;;;;;;;;5050834;28;19951;-62
2024/02/28 15:20:07;;;;;;;;;;;;;;;;;;5051955;28;19974;-63
2024/02/28 15:22:33;;;;;;;;;;;;;;;;;;5052033;28;19932;-63
2024/02/28 15:24:59;;;;;;;;;;;;;;;;;;5050388;28;19920;-63
2024/02/28 15:27:25;;;;;;;;;;;;;;;;;;5045599;28;19924;-63
2024/02/28 15:29:51;;;;;;;;;;;;;;;;;;5044825;28;19967;-64
2024/02/28 15:32:17;;;;;;;;;;;;;;;;;;5053285;28;19966;-64
2024/02/28 15:34:43;;;;;;;;;;;;;;;;;;5050494;28;19921;-64
2024/02/28 15:37:09;;;;;;;;;;;;;;;;;;5052580;28;19978;-64
2024/02/28 15:39:35;;;;;;;;;;;;;;;;;;5047760;28;20428;-63
2024/02/28 15:42:01;;;;;;;;;;;;;;;;;;5051861;28;19921;-64
2024/02/28 15:44:27;;;;;;;;;;;;;;;;;;5051315;28;19990;-63
2024/02/28 15:46:53;;;;;;;;;;;;;;;;;;5049645;28;19924;-64
2024/02/28 15:49:19;;;;;;;;;;;;;;;;;;5042460;28;19920;-63
2024/02/28 15:51:45;;;;;;;;;;;;;;;;;;5062619;28;20342;-63
2024/02/28 15:54:10;;;;;;;;;;;;;;;;;;5047783;28;19968;-63
2024/02/28 15:56:37;;;;;;;;;;;;;;;;;;5051765;28;19929;-64
2024/02/28 15:59:06;;;;;;;;;;;;;;;;;;5051985;28;20325;-64
2024/02/28 16:01:32;;;;;;;;;;;;;;;;;;5052109;28;19925;-64
2024/02/28 16:03:58;;;;;;;;;;;;;;;;;;5051839;28;20020;-64
2024/02/28 16:06:25;;;;;;;;;;;;;;;;;;5051476;28;19932;-64
2024/02/28 16:08:51;;;;;;;;;;;;;;;;;;5051839;28;19998;-64
2024/02/28 16:11:16;;;;;;;;;;;;;;;;;;5050476;28;20321;-64
2024/02/28 16:13:43;;;;;;;;;;;;;;;;;;5051692;28;19921;-64
2024/02/28 16:16:08;;;;;;;;;;;;;;;;;;5051978;28;19924;-64
2024/02/28 16:18:34;;;;;;;;;;;;;;;;;;5051670;28;19924;-64
2024/02/28 16:21:01;;;;;;;;;;;;;;;;;;5049338;28;20385;-64
2024/02/28 16:23:27;;;;;;;;;;;;;;;;;;5050125;28;19947;-64
2024/02/28 16:25:57;;;;;;;;;;;;;;;;;;5052676;28;19925;-64
2024/02/28 16:28:23;;;;;;;;;;;;;;;;;;5050161;28;19986;-64
2024/02/28 16:30:49;;;;;;;;;;;;;;;;;;5061638;28;19924;-63
2024/02/28 16:33:20;;;;;;;;;;;;;;;;;;5048608;28;19925;-64
2024/02/28 16:35:46;;;;;;;;;;;;;;;;;;5041341;28;19939;-63
2024/02/28 16:38:12;;;;;;;;;;;;;;;;;;5040548;28;19921;-63